Terminal Aerodrome Forecast
Issued by NWS Twin Cities, MN

Home | Current Version | Previous Version | Graphics & Text | Print | Product List | Glossary On
Versions: 1 2 3 4 5 6 7 8 9 10 11 12 13 14
000
FTUS43 KMPX 222300
TAFSTC
TAF
KSTC 222339Z 2300/2324 36006KT P6SM SCT250
     FM230200 08006KT P6SM SCT100 SCT250
     FM230900 12010KT P6SM SCT060 BKN100
     FM231400 13013G19KT 6SM -SHRA SCT030 BKN060
     FM232000 13007G25KT 4SM -RA BR OVC030=

USA.gov is the U.S. government's official web portal to all federal, state and local government web resources and services.